sensor_id;sensor_type;location;lat;lon;timestamp;pressure;altitude;pressure_sealevel;temperature;humidity
30339;BME280;795;49.296;11.348;2023-02-25T00:02:21;94886.25;;;1.34;100.00
30339;BME280;795;49.296;11.348;2023-02-25T00:04:50;94975.13;;;1.98;100.00
30339;BME280;795;49.296;11.348;2023-02-25T00:07:17;94773.88;;;0.60;100.00
30339;BME280;795;49.296;11.348;2023-02-25T00:09:45;94791.88;;;0.92;100.00
30339;BME280;795;49.296;11.348;2023-02-25T00:12:14;94879.63;;;1.30;100.00
30339;BME280;795;49.296;11.348;2023-02-25T00:14:44;94881.44;;;1.30;100.00
30339;BME280;795;49.296;11.348;2023-02-25T00:17:14;94895.31;;;1.32;100.00
30339;BME280;795;49.296;11.348;2023-02-25T00:19:44;94946.47;;;1.76;100.00
30339;BME280;795;49.296;11.348;2023-02-25T00:22:12;94726.41;;;0.50;100.00
30339;BME280;795;49.296;11.348;2023-02-25T00:24:41;94809.44;;;1.01;100.00
30339;BME280;795;49.296;11.348;2023-02-25T00:27:14;94988.56;;;2.05;100.00
30339;BME280;795;49.296;11.348;2023-02-25T00:29:42;94859.34;;;1.21;100.00
30339;BME280;795;49.296;11.348;2023-02-25T00:32:13;94861.88;;;1.23;100.00
30339;BME280;795;49.296;11.348;2023-02-25T00:34:40;94944.22;;;1.63;100.00
30339;BME280;795;49.296;11.348;2023-02-25T00:37:08;94997.94;;;1.99;100.00
30339;BME280;795;49.296;11.348;2023-02-25T00:39:38;94941.41;;;1.65;100.00
30339;BME280;795;49.296;11.348;2023-02-25T00:42:18;94874.56;;;1.37;100.00
30339;BME280;795;49.296;11.348;2023-02-25T00:44:52;94805.06;;;0.92;100.00
30339;BME280;795;49.296;11.348;2023-02-25T00:47:19;94672.13;;;0.03;100.00
30339;BME280;795;49.296;11.348;2023-02-25T00:49:47;94741.78;;;0.37;100.00
30339;BME280;795;49.296;11.348;2023-02-25T00:52:18;94914.88;;;1.39;100.00
30339;BME280;795;49.296;11.348;2023-02-25T00:54:48;94968.53;;;1.84;100.00
30339;BME280;795;49.296;11.348;2023-02-25T00:57:21;94932.88;;;1.53;100.00
30339;BME280;795;49.296;11.348;2023-02-25T00:59:50;94992.34;;;1.84;100.00
30339;BME280;795;49.296;11.348;2023-02-25T01:02:20;94871.13;;;1.09;100.00
30339;BME280;795;49.296;11.348;2023-02-25T01:04:51;94878.97;;;1.19;100.00
30339;BME280;795;49.296;11.348;2023-02-25T01:07:24;94903.63;;;1.37;100.00
30339;BME280;795;49.296;11.348;2023-02-25T01:09:57;94899.03;;;1.39;100.00
30339;BME280;795;49.296;11.348;2023-02-25T01:12:25;94877.19;;;1.19;100.00
30339;BME280;795;49.296;11.348;2023-02-25T01:14:58;94861.94;;;1.13;100.00
30339;BME280;795;49.296;11.348;2023-02-25T01:17:25;94820.44;;;0.79;100.00
30339;BME280;795;49.296;11.348;2023-02-25T01:19:59;94944.44;;;1.52;100.00
30339;BME280;795;49.296;11.348;2023-02-25T01:22:30;94869.47;;;1.08;100.00
30339;BME280;795;49.296;11.348;2023-02-25T01:24:59;94720.38;;;0.13;100.00
30339;BME280;795;49.296;11.348;2023-02-25T01:27:27;94820.72;;;0.76;100.00
30339;BME280;795;49.296;11.348;2023-02-25T01:29:56;94892.19;;;1.01;100.00
30339;BME280;795;49.296;11.348;2023-02-25T01:32:23;94920.47;;;1.18;100.00
30339;BME280;795;49.296;11.348;2023-02-25T01:34:53;94890.31;;;1.11;100.00
30339;BME280;795;49.296;11.348;2023-02-25T01:37:20;94720.88;;;-0.01;100.00
30339;BME280;795;49.296;11.348;2023-02-25T01:39:50;94820.41;;;0.61;100.00
30339;BME280;795;49.296;11.348;2023-02-25T01:42:20;94884.63;;;0.89;100.00
30339;BME280;795;49.296;11.348;2023-02-25T01:47:59;94977.75;;;1.45;100.00
30339;BME280;795;49.296;11.348;2023-02-25T01:50:41;94943.75;;;1.32;100.00
30339;BME280;795;49.296;11.348;2023-02-25T01:53:17;94876.69;;;0.89;100.00
30339;BME280;795;49.296;11.348;2023-02-25T01:55:51;95017.34;;;1.72;100.00
30339;BME280;795;49.296;11.348;2023-02-25T01:58:20;94918.88;;;1.25;100.00
30339;BME280;795;49.296;11.348;2023-02-25T02:00:49;95001.81;;;1.69;100.00
30339;BME280;795;49.296;11.348;2023-02-25T02:03:32;95001.66;;;1.71;100.00
30339;BME280;795;49.296;11.348;2023-02-25T02:06:27;94968.25;;;1.52;100.00
30339;BME280;795;49.296;11.348;2023-02-25T02:08:57;94989.06;;;1.55;100.00
30339;BME280;795;49.296;11.348;2023-02-25T02:11:28;94859.78;;;0.82;100.00
30339;BME280;795;49.296;11.348;2023-02-25T02:13:59;94786.25;;;0.32;100.00
30339;BME280;795;49.296;11.348;2023-02-25T02:17:16;94935.88;;;1.23;100.00
30339;BME280;795;49.296;11.348;2023-02-25T02:20:01;95004.06;;;1.64;100.00
30339;BME280;795;49.296;11.348;2023-02-25T02:23:36;94963.69;;;1.45;100.00
30339;BME280;795;49.296;11.348;2023-02-25T02:33:28;94918.16;;;1.06;100.00
30339;BME280;795;49.296;11.348;2023-02-25T02:36:17;94918.28;;;1.04;100.00
30339;BME280;795;49.296;11.348;2023-02-25T02:42:45;94979.31;;;1.38;100.00
30339;BME280;795;49.296;11.348;2023-02-25T02:51:55;94961.50;;;1.13;100.00
30339;BME280;795;49.296;11.348;2023-02-25T02:54:33;95032.91;;;1.58;100.00
30339;BME280;795;49.296;11.348;2023-02-25T02:57:05;95000.75;;;1.35;100.00
30339;BME280;795;49.296;11.348;2023-02-25T02:59:54;94836.81;;;0.28;100.00
30339;BME280;795;49.296;11.348;2023-02-25T03:02:34;94711.22;;;-0.47;100.00
30339;BME280;795;49.296;11.348;2023-02-25T03:05:23;94935.97;;;0.77;100.00
30339;BME280;795;49.296;11.348;2023-02-25T03:08:13;94919.53;;;0.55;100.00
30339;BME280;795;49.296;11.348;2023-02-25T03:10:41;94906.50;;;0.44;100.00
30339;BME280;795;49.296;11.348;2023-02-25T03:13:11;94967.66;;;0.77;100.00
30339;BME280;795;49.296;11.348;2023-02-25T03:15:40;95006.41;;;0.86;100.00
30339;BME280;795;49.296;11.348;2023-02-25T03:18:43;95037.31;;;1.12;100.00
30339;BME280;795;49.296;11.348;2023-02-25T03:21:24;94935.25;;;0.47;100.00
30339;BME280;795;49.296;11.348;2023-02-25T03:23:54;94934.00;;;0.42;100.00
30339;BME280;795;49.296;11.348;2023-02-25T03:26:32;94888.00;;;0.08;100.00
30339;BME280;795;49.296;11.348;2023-02-25T03:28:59;94954.13;;;0.52;100.00
30339;BME280;795;49.296;11.348;2023-02-25T03:31:40;95067.06;;;1.14;100.00
30339;BME280;795;49.296;11.348;2023-02-25T03:34:19;95009.72;;;0.88;100.00
30339;BME280;795;49.296;11.348;2023-02-25T03:37:00;95061.34;;;1.19;100.00
30339;BME280;795;49.296;11.348;2023-02-25T03:39:45;94900.88;;;0.20;100.00
30339;BME280;795;49.296;11.348;2023-02-25T03:42:23;94966.03;;;0.66;100.00
30339;BME280;795;49.296;11.348;2023-02-25T03:45:01;95073.00;;;1.26;100.00
30339;BME280;795;49.296;11.348;2023-02-25T03:47:37;94847.25;;;-0.08;100.00
30339;BME280;795;49.296;11.348;2023-02-25T03:50:15;94948.16;;;0.50;100.00
30339;BME280;795;49.296;11.348;2023-02-25T03:52:48;95005.56;;;0.85;100.00
30339;BME280;795;49.296;11.348;2023-02-25T03:55:17;94881.59;;;0.10;100.00
30339;BME280;795;49.296;11.348;2023-02-25T03:57:53;95020.97;;;0.99;100.00
30339;BME280;795;49.296;11.348;2023-02-25T04:00:27;95067.97;;;1.32;100.00
30339;BME280;795;49.296;11.348;2023-02-25T04:02:57;95062.19;;;1.19;100.00
30339;BME280;795;49.296;11.348;2023-02-25T04:05:31;95021.25;;;0.96;100.00
30339;BME280;795;49.296;11.348;2023-02-25T04:07:59;95050.91;;;1.17;100.00
30339;BME280;795;49.296;11.348;2023-02-25T04:10:27;95076.34;;;1.28;100.00
30339;BME280;795;49.296;11.348;2023-02-25T04:12:54;95003.94;;;0.75;100.00
30339;BME280;795;49.296;11.348;2023-02-25T04:15:25;94920.16;;;0.30;100.00
30339;BME280;795;49.296;11.348;2023-02-25T04:17:53;94879.81;;;0.11;100.00
30339;BME280;795;49.296;11.348;2023-02-25T04:20:21;94968.97;;;0.53;100.00
30339;BME280;795;49.296;11.348;2023-02-25T04:22:51;94889.38;;;0.12;100.00
30339;BME280;795;49.296;11.348;2023-02-25T04:25:24;94996.84;;;0.85;100.00
30339;BME280;795;49.296;11.348;2023-02-25T04:27:52;95072.19;;;1.25;100.00
30339;BME280;795;49.296;11.348;2023-02-25T04:30:22;94898.50;;;0.17;100.00
30339;BME280;795;49.296;11.348;2023-02-25T04:32:55;95051.66;;;1.10;100.00
30339;BME280;795;49.296;11.348;2023-02-25T04:35:23;94899.66;;;0.05;100.00
30339;BME280;795;49.296;11.348;2023-02-25T04:37:53;94930.88;;;0.19;100.00
30339;BME280;795;49.296;11.348;2023-02-25T04:40:22;94920.16;;;0.30;100.00
30339;BME280;795;49.296;11.348;2023-02-25T04:42:51;94930.47;;;0.24;100.00
30339;BME280;795;49.296;11.348;2023-02-25T04:45:20;95051.16;;;0.97;100.00
30339;BME280;795;49.296;11.348;2023-02-25T04:47:56;94987.34;;;0.55;100.00
30339;BME280;795;49.296;11.348;2023-02-25T04:50:26;95061.84;;;0.95;100.00
30339;BME280;795;49.296;11.348;2023-02-25T04:53:00;95077.78;;;1.13;100.00
30339;BME280;795;49.296;11.348;2023-02-25T04:55:35;94861.44;;;-0.37;100.00
30339;BME280;795;49.296;11.348;2023-02-25T04:58:06;95071.25;;;1.07;100.00
30339;BME280;795;49.296;11.348;2023-02-25T05:00:33;94808.91;;;-0.68;100.00
30339;BME280;795;49.296;11.348;2023-02-25T05:03:02;95073.22;;;1.05;100.00
30339;BME280;795;49.296;11.348;2023-02-25T05:05:30;95020.34;;;0.68;100.00
30339;BME280;795;49.296;11.348;2023-02-25T05:07:59;94859.88;;;-0.21;100.00
30339;BME280;795;49.296;11.348;2023-02-25T05:10:27;94740.88;;;-1.01;100.00
30339;BME280;795;49.296;11.348;2023-02-25T05:12:54;94835.13;;;-0.66;100.00
30339;BME280;795;49.296;11.348;2023-02-25T05:15:27;94842.59;;;-0.42;100.00
30339;BME280;795;49.296;11.348;2023-02-25T05:17:54;94830.69;;;-0.56;100.00
30339;BME280;795;49.296;11.348;2023-02-25T05:20:21;94972.91;;;0.40;100.00
30339;BME280;795;49.296;11.348;2023-02-25T05:22:49;94885.56;;;-0.13;100.00
30339;BME280;795;49.296;11.348;2023-02-25T05:25:17;95084.63;;;1.06;100.00
30339;BME280;795;49.296;11.348;2023-02-25T05:27:44;94958.50;;;0.15;100.00
30339;BME280;795;49.296;11.348;2023-02-25T05:30:13;94941.03;;;0.14;100.00
30339;BME280;795;49.296;11.348;2023-02-25T05:32:40;94928.97;;;0.02;100.00
30339;BME280;795;49.296;11.348;2023-02-25T05:35:09;95038.25;;;0.84;100.00
30339;BME280;795;49.296;11.348;2023-02-25T05:37:37;95023.13;;;0.77;100.00
30339;BME280;795;49.296;11.348;2023-02-25T05:40:06;95008.84;;;0.70;100.00
30339;BME280;795;49.296;11.348;2023-02-25T05:42:35;94753.06;;;-0.90;100.00
30339;BME280;795;49.296;11.348;2023-02-25T05:45:03;94997.31;;;0.51;100.00
30339;BME280;795;49.296;11.348;2023-02-25T05:47:30;94933.53;;;0.19;100.00
30339;BME280;795;49.296;11.348;2023-02-25T05:49:57;94890.53;;;-0.01;100.00
30339;BME280;795;49.296;11.348;2023-02-25T05:52:24;94764.69;;;-0.74;100.00
30339;BME280;795;49.296;11.348;2023-02-25T05:54:51;95013.97;;;0.71;100.00
30339;BME280;795;49.296;11.348;2023-02-25T05:57:18;94790.47;;;-0.77;100.00
30339;BME280;795;49.296;11.348;2023-02-25T05:59:45;94968.78;;;0.28;100.00
30339;BME280;795;49.296;11.348;2023-02-25T06:02:12;94984.41;;;0.58;100.00
30339;BME280;795;49.296;11.348;2023-02-25T06:04:39;95039.22;;;0.83;100.00
30339;BME280;795;49.296;11.348;2023-02-25T06:07:07;94981.81;;;0.29;100.00
30339;BME280;795;49.296;11.348;2023-02-25T06:09:34;94869.63;;;-0.31;100.00
30339;BME280;795;49.296;11.348;2023-02-25T06:12:02;94963.88;;;0.42;100.00
30339;BME280;795;49.296;11.348;2023-02-25T06:14:29;94981.09;;;0.46;100.00
30339;BME280;795;49.296;11.348;2023-02-25T06:16:56;95071.44;;;0.96;100.00
30339;BME280;795;49.296;11.348;2023-02-25T06:19:24;95094.91;;;1.09;100.00
30339;BME280;795;49.296;11.348;2023-02-25T06:21:55;95037.00;;;0.79;100.00
30339;BME280;795;49.296;11.348;2023-02-25T06:24:22;95026.06;;;0.64;100.00
30339;BME280;795;49.296;11.348;2023-02-25T06:26:50;95082.50;;;1.09;100.00
30339;BME280;795;49.296;11.348;2023-02-25T06:29:17;95003.69;;;0.58;100.00
30339;BME280;795;49.296;11.348;2023-02-25T06:31:45;95066.41;;;1.03;100.00
30339;BME280;795;49.296;11.348;2023-02-25T06:34:12;95000.94;;;0.60;100.00
30339;BME280;795;49.296;11.348;2023-02-25T06:36:39;94910.34;;;0.13;100.00
30339;BME280;795;49.296;11.348;2023-02-25T06:39:06;95009.22;;;0.75;100.00
30339;BME280;795;49.296;11.348;2023-02-25T06:41:33;94903.44;;;-0.07;100.00
30339;BME280;795;49.296;11.348;2023-02-25T06:44:00;94878.47;;;-0.13;100.00
30339;BME280;795;49.296;11.348;2023-02-25T06:46:27;94986.91;;;0.59;100.00
30339;BME280;795;49.296;11.348;2023-02-25T06:48:55;95119.13;;;1.41;100.00
30339;BME280;795;49.296;11.348;2023-02-25T06:51:24;95081.13;;;1.15;100.00
30339;BME280;795;49.296;11.348;2023-02-25T06:53:51;95097.19;;;1.31;100.00
30339;BME280;795;49.296;11.348;2023-02-25T06:56:19;94818.28;;;-0.36;100.00
30339;BME280;795;49.296;11.348;2023-02-25T06:58:49;95008.56;;;0.73;100.00
30339;BME280;795;49.296;11.348;2023-02-25T07:01:18;95126.09;;;1.42;100.00
30339;BME280;795;49.296;11.348;2023-02-25T07:03:45;95073.41;;;0.94;100.00
30339;BME280;795;49.296;11.348;2023-02-25T07:06:12;95036.72;;;0.82;100.00
30339;BME280;795;49.296;11.348;2023-02-25T07:08:46;95013.97;;;0.61;100.00
30339;BME280;795;49.296;11.348;2023-02-25T07:11:28;95091.94;;;1.21;100.00
30339;BME280;795;49.296;11.348;2023-02-25T07:13:56;95060.16;;;1.04;100.00
30339;BME280;795;49.296;11.348;2023-02-25T07:16:23;95040.47;;;0.89;100.00
30339;BME280;795;49.296;11.348;2023-02-25T07:18:51;95080.28;;;1.14;100.00
30339;BME280;795;49.296;11.348;2023-02-25T07:21:18;94864.03;;;-0.09;100.00
30339;BME280;795;49.296;11.348;2023-02-25T07:23:45;94989.38;;;0.61;100.00
30339;BME280;795;49.296;11.348;2023-02-25T07:26:14;95046.13;;;1.03;100.00
30339;BME280;795;49.296;11.348;2023-02-25T07:28:42;95040.19;;;1.19;100.00
30339;BME280;795;49.296;11.348;2023-02-25T07:31:17;94929.13;;;0.47;100.00
30339;BME280;795;49.296;11.348;2023-02-25T07:33:45;95125.41;;;1.67;100.00
30339;BME280;795;49.296;11.348;2023-02-25T07:36:14;94859.25;;;0.14;100.00
30339;BME280;795;49.296;11.348;2023-02-25T07:38:43;94941.13;;;0.68;100.00
30339;BME280;795;49.296;11.348;2023-02-25T07:41:15;94933.47;;;0.75;100.00
30339;BME280;795;49.296;11.348;2023-02-25T07:43:43;95072.28;;;1.61;100.00
30339;BME280;795;49.296;11.348;2023-02-25T07:46:11;95055.34;;;1.54;100.00
30339;BME280;795;49.296;11.348;2023-02-25T07:48:39;95110.53;;;1.66;100.00
30339;BME280;795;49.296;11.348;2023-02-25T07:51:15;95134.25;;;2.13;100.00
30339;BME280;795;49.296;11.348;2023-02-25T07:53:46;95020.34;;;1.42;100.00
30339;BME280;795;49.296;11.348;2023-02-25T07:56:14;95131.13;;;2.17;100.00
30339;BME280;795;49.296;11.348;2023-02-25T07:58:41;94888.44;;;0.77;100.00
30339;BME280;795;49.296;11.348;2023-02-25T08:01:26;95095.00;;;2.08;100.00
30339;BME280;795;49.296;11.348;2023-02-25T08:03:58;95058.03;;;1.89;100.00
30339;BME280;795;49.296;11.348;2023-02-25T08:06:27;95073.78;;;1.90;100.00
30339;BME280;795;49.296;11.348;2023-02-25T08:08:54;95127.38;;;2.20;100.00
30339;BME280;795;49.296;11.348;2023-02-25T08:11:24;95012.28;;;1.61;100.00
30339;BME280;795;49.296;11.348;2023-02-25T08:13:53;95134.16;;;2.40;100.00
30339;BME280;795;49.296;11.348;2023-02-25T08:16:21;94965.88;;;1.49;100.00
30339;BME280;795;49.296;11.348;2023-02-25T08:18:48;95140.91;;;2.52;100.00
30339;BME280;795;49.296;11.348;2023-02-25T08:21:19;94961.63;;;1.21;100.00
30339;BME280;795;49.296;11.348;2023-02-25T08:23:52;95142.28;;;2.38;100.00
30339;BME280;795;49.296;11.348;2023-02-25T08:26:21;95014.94;;;1.61;100.00
30339;BME280;795;49.296;11.348;2023-02-25T08:28:50;95033.75;;;1.58;100.00
30339;BME280;795;49.296;11.348;2023-02-25T08:31:19;94942.91;;;1.05;100.00
30339;BME280;795;49.296;11.348;2023-02-25T08:33:49;95040.84;;;1.58;100.00
30339;BME280;795;49.296;11.348;2023-02-25T08:36:23;95164.38;;;2.29;100.00
30339;BME280;795;49.296;11.348;2023-02-25T08:38:53;95021.50;;;1.57;100.00
30339;BME280;795;49.296;11.348;2023-02-25T08:41:22;95150.13;;;2.30;100.00
30339;BME280;795;49.296;11.348;2023-02-25T08:43:54;94979.28;;;1.20;100.00
30339;BME280;795;49.296;11.348;2023-02-25T08:46:28;95088.66;;;1.91;100.00
30339;BME280;795;49.296;11.348;2023-02-25T08:48:56;95156.19;;;2.40;100.00
30339;BME280;795;49.296;11.348;2023-02-25T08:51:26;95091.81;;;2.22;100.00
30339;BME280;795;49.296;11.348;2023-02-25T08:54:09;95143.84;;;2.84;100.00
30339;BME280;795;49.296;11.348;2023-02-25T08:56:37;95052.88;;;2.32;100.00
30339;BME280;795;49.296;11.348;2023-02-25T08:59:14;94883.25;;;1.47;100.00
30339;BME280;795;49.296;11.348;2023-02-25T09:03:48;94981.84;;;2.10;100.00
30339;BME280;795;49.296;11.348;2023-02-25T09:06:27;94918.78;;;2.06;100.00
30339;BME280;795;49.296;11.348;2023-02-25T09:08:55;95140.00;;;3.48;100.00
30339;BME280;795;49.296;11.348;2023-02-25T09:11:24;95148.53;;;3.33;100.00
30339;BME280;795;49.296;11.348;2023-02-25T09:13:53;95148.47;;;3.00;100.00
30339;BME280;795;49.296;11.348;2023-02-25T09:16:20;95150.59;;;2.79;100.00
30339;BME280;795;49.296;11.348;2023-02-25T09:18:49;95069.41;;;2.17;100.00
30339;BME280;795;49.296;11.348;2023-02-25T09:21:18;95155.47;;;2.83;100.00
30339;BME280;795;49.296;11.348;2023-02-25T09:23:46;95124.81;;;2.63;100.00
30339;BME280;795;49.296;11.348;2023-02-25T09:26:13;95075.63;;;2.25;100.00
30339;BME280;795;49.296;11.348;2023-02-25T09:28:40;94844.31;;;0.87;100.00
30339;BME280;795;49.296;11.348;2023-02-25T09:31:07;95154.06;;;2.79;100.00
30339;BME280;795;49.296;11.348;2023-02-25T09:33:38;95161.72;;;2.82;100.00
30339;BME280;795;49.296;11.348;2023-02-25T09:36:14;95101.50;;;2.49;100.00
30339;BME280;795;49.296;11.348;2023-02-25T09:38:45;95045.97;;;2.22;100.00
30339;BME280;795;49.296;11.348;2023-02-25T09:41:36;95170.84;;;3.23;100.00
30339;BME280;795;49.296;11.348;2023-02-25T09:47:02;94896.22;;;1.41;100.00
30339;BME280;795;49.296;11.348;2023-02-25T09:50:02;95153.44;;;3.03;100.00
30339;BME280;795;49.296;11.348;2023-02-25T09:52:39;95156.34;;;3.35;100.00
30339;BME280;795;49.296;11.348;2023-02-25T09:58:24;95122.69;;;3.35;100.00
30339;BME280;795;49.296;11.348;2023-02-25T10:01:34;95047.75;;;3.33;100.00
30339;BME280;795;49.296;11.348;2023-02-25T10:04:22;95152.28;;;4.24;100.00
30339;BME280;795;49.296;11.348;2023-02-25T10:06:51;95152.47;;;4.23;100.00
30339;BME280;795;49.296;11.348;2023-02-25T10:09:50;95158.53;;;3.99;100.00
30339;BME280;795;49.296;11.348;2023-02-25T10:15:29;95122.16;;;3.58;100.00
30339;BME280;795;49.296;11.348;2023-02-25T10:18:51;95160.16;;;3.58;100.00
30339;BME280;795;49.296;11.348;2023-02-25T10:24:56;95140.81;;;3.22;100.00
30339;BME280;795;49.296;11.348;2023-02-25T10:27:44;95106.94;;;3.08;100.00
30339;BME280;795;49.296;11.348;2023-02-25T10:30:27;94995.66;;;2.65;100.00
30339;BME280;795;49.296;11.348;2023-02-25T10:33:19;95152.16;;;3.84;100.00
30339;BME280;795;49.296;11.348;2023-02-25T10:36:06;95149.31;;;3.85;100.00
30339;BME280;795;49.296;11.348;2023-02-25T10:38:41;95027.09;;;3.11;100.00
30339;BME280;795;49.296;11.348;2023-02-25T10:41:12;95134.88;;;3.80;100.00
30339;BME280;795;49.296;11.348;2023-02-25T10:43:43;95093.09;;;3.48;100.00
30339;BME280;795;49.296;11.348;2023-02-25T10:47:02;95107.03;;;3.50;100.00
30339;BME280;795;49.296;11.348;2023-02-25T10:49:30;95131.50;;;3.70;100.00
30339;BME280;795;49.296;11.348;2023-02-25T10:52:17;95120.59;;;3.81;100.00
30339;BME280;795;49.296;11.348;2023-02-25T10:54:51;95135.13;;;4.02;100.00
30339;BME280;795;49.296;11.348;2023-02-25T10:57:41;95082.03;;;3.94;100.00
30339;BME280;795;49.296;11.348;2023-02-25T11:00:32;95007.41;;;3.64;100.00
30339;BME280;795;49.296;11.348;2023-02-25T11:03:02;94937.13;;;3.68;100.00
30339;BME280;795;49.296;11.348;2023-02-25T11:05:40;95129.16;;;5.07;100.00
30339;BME280;795;49.296;11.348;2023-02-25T11:08:32;95104.50;;;5.61;91.47
30339;BME280;795;49.296;11.348;2023-02-25T11:13:43;95092.22;;;5.44;92.19
30339;BME280;795;49.296;11.348;2023-02-25T11:16:13;94992.41;;;4.85;92.25
30339;BME280;795;49.296;11.348;2023-02-25T11:18:40;94927.19;;;4.50;88.84
30339;BME280;795;49.296;11.348;2023-02-25T11:21:12;95095.19;;;6.12;88.39
30339;BME280;795;49.296;11.348;2023-02-25T11:23:47;94967.16;;;5.44;84.85
30339;BME280;795;49.296;11.348;2023-02-25T11:26:33;95089.50;;;5.60;88.05
30339;BME280;795;49.296;11.348;2023-02-25T11:29:13;94943.47;;;3.99;89.17
30339;BME280;795;49.296;11.348;2023-02-25T11:31:42;95010.69;;;4.08;91.64
30339;BME280;795;49.296;11.348;2023-02-25T11:34:23;95097.09;;;4.52;95.55
30339;BME280;795;49.296;11.348;2023-02-25T11:36:51;95098.88;;;4.35;98.43
30339;BME280;795;49.296;11.348;2023-02-25T11:39:25;95095.16;;;4.12;100.00
30339;BME280;795;49.296;11.348;2023-02-25T11:42:00;95100.28;;;4.06;100.00
30339;BME280;795;49.296;11.348;2023-02-25T11:44:43;95098.22;;;4.33;100.00
30339;BME280;795;49.296;11.348;2023-02-25T11:47:33;95089.13;;;4.76;100.00
30339;BME280;795;49.296;11.348;2023-02-25T11:50:34;94925.47;;;5.28;93.38
30339;BME280;795;49.296;11.348;2023-02-25T11:53:43;95031.41;;;6.11;89.86
30339;BME280;795;49.296;11.348;2023-02-25T11:56:37;94954.66;;;6.06;86.14
30339;BME280;795;49.296;11.348;2023-02-25T12:00:23;95048.28;;;6.03;86.46
30339;BME280;795;49.296;11.348;2023-02-25T12:03:11;95068.25;;;5.99;86.80
30339;BME280;795;49.296;11.348;2023-02-25T12:13:12;95076.72;;;3.01;100.00
30339;BME280;795;49.296;11.348;2023-02-25T12:26:13;95112.53;;;5.21;100.00
30339;BME280;795;49.296;11.348;2023-02-25T12:29:03;94993.06;;;5.03;100.00
30339;BME280;795;49.296;11.348;2023-02-25T12:32:17;95139.75;;;4.00;100.00
30339;BME280;795;49.296;11.348;2023-02-25T12:51:29;95166.56;;;0.87;100.00
30339;BME280;795;49.296;11.348;2023-02-25T12:57:49;95172.03;;;1.31;100.00
30339;BME280;795;49.296;11.348;2023-02-25T13:01:01;95144.19;;;1.37;100.00
30339;BME280;795;49.296;11.348;2023-02-25T13:04:09;95116.06;;;1.46;100.00
30339;BME280;795;49.296;11.348;2023-02-25T13:10:51;95146.50;;;1.59;100.00
30339;BME280;795;49.296;11.348;2023-02-25T13:14:08;95132.97;;;1.62;100.00
30339;BME280;795;49.296;11.348;2023-02-25T13:26:42;95050.97;;;1.08;100.00
30339;BME280;795;49.296;11.348;2023-02-25T13:32:42;95128.06;;;1.67;100.00
30339;BME280;795;49.296;11.348;2023-02-25T13:42:07;95113.94;;;1.86;100.00
30339;BME280;795;49.296;11.348;2023-02-25T13:45:48;95054.34;;;1.27;100.00
30339;BME280;795;49.296;11.348;2023-02-25T13:48:29;95117.44;;;1.50;100.00
30339;BME280;795;49.296;11.348;2023-02-25T14:01:25;95180.22;;;0.73;100.00
30339;BME280;795;49.296;11.348;2023-02-25T14:11:12;95203.56;;;0.68;100.00
30339;BME280;795;49.296;11.348;2023-02-25T14:20:58;95209.38;;;0.81;100.00
30339;BME280;795;49.296;11.348;2023-02-25T14:24:14;95219.41;;;0.77;100.00
30339;BME280;795;49.296;11.348;2023-02-25T14:30:33;95216.34;;;0.82;100.00
30339;BME280;795;49.296;11.348;2023-02-25T14:36:24;95217.28;;;1.00;100.00
30339;BME280;795;49.296;11.348;2023-02-25T14:42:53;95215.78;;;0.88;100.00
30339;BME280;795;49.296;11.348;2023-02-25T14:45:36;95182.00;;;0.62;100.00
30339;BME280;795;49.296;11.348;2023-02-25T14:58:21;95185.56;;;1.09;100.00
30339;BME280;795;49.296;11.348;2023-02-25T15:01:14;95184.06;;;0.97;100.00
30339;BME280;795;49.296;11.348;2023-02-25T15:04:23;95157.66;;;0.78;100.00
30339;BME280;795;49.296;11.348;2023-02-25T15:11:11;95115.72;;;0.37;100.00
30339;BME280;795;49.296;11.348;2023-02-25T15:17:32;95157.56;;;0.70;100.00
30339;BME280;795;49.296;11.348;2023-02-25T15:23:14;95187.16;;;0.74;100.00
30339;BME280;795;49.296;11.348;2023-02-25T15:26:23;95156.72;;;0.60;100.00
30339;BME280;795;49.296;11.348;2023-02-25T15:28:53;95248.47;;;1.06;100.00
30339;BME280;795;49.296;11.348;2023-02-25T15:31:33;95144.63;;;0.38;100.00
30339;BME280;795;49.296;11.348;2023-02-25T15:34:33;95238.84;;;1.05;100.00
30339;BME280;795;49.296;11.348;2023-02-25T15:37:36;95217.59;;;0.97;100.00
30339;BME280;795;49.296;11.348;2023-02-25T15:48:37;95241.06;;;0.90;100.00
30339;BME280;795;49.296;11.348;2023-02-25T15:51:40;95238.75;;;0.87;100.00
30339;BME280;795;49.296;11.348;2023-02-25T15:53:58;95255.81;;;0.93;100.00
30339;BME280;795;49.296;11.348;2023-02-25T15:56:29;95219.69;;;0.64;100.00
30339;BME280;795;49.296;11.348;2023-02-25T15:59:10;95211.88;;;0.53;100.00
30339;BME280;795;49.296;11.348;2023-02-25T16:01:57;95261.94;;;0.84;100.00
30339;BME280;795;49.296;11.348;2023-02-25T16:04:46;95227.16;;;0.59;100.00
30339;BME280;795;49.296;11.348;2023-02-25T16:07:20;95278.63;;;0.75;100.00
30339;BME280;795;49.296;11.348;2023-02-25T16:09:58;95237.00;;;0.38;100.00
30339;BME280;795;49.296;11.348;2023-02-25T16:12:28;95104.72;;;-0.65;100.00
30339;BME280;795;49.296;11.348;2023-02-25T16:14:58;95199.81;;;-0.08;100.00
30339;BME280;795;49.296;11.348;2023-02-25T16:17:34;95277.41;;;0.29;100.00
30339;BME280;795;49.296;11.348;2023-02-25T16:20:26;95293.56;;;0.45;100.00
30339;BME280;795;49.296;11.348;2023-02-25T16:22:59;95300.53;;;0.56;100.00
30339;BME280;795;49.296;11.348;2023-02-25T16:25:47;95234.88;;;0.13;100.00
30339;BME280;795;49.296;11.348;2023-02-25T16:28:57;95315.28;;;0.68;100.00
30339;BME280;795;49.296;11.348;2023-02-25T16:35:27;95260.56;;;0.21;100.00
30339;BME280;795;49.296;11.348;2023-02-25T16:40:53;95258.78;;;0.21;100.00
30339;BME280;795;49.296;11.348;2023-02-25T16:43:27;95253.75;;;0.09;100.00
30339;BME280;795;49.296;11.348;2023-02-25T16:46:01;95241.53;;;0.17;100.00
30339;BME280;795;49.296;11.348;2023-02-25T16:48:38;95338.25;;;0.77;100.00